createdAt,value
2022-12-18T00:01:07.319Z,2.70
2022-12-18T00:03:37.487Z,2.64
2022-12-18T00:06:07.204Z,2.60
2022-12-18T00:08:33.754Z,2.58
2022-12-18T00:11:18.181Z,2.63
2022-12-18T00:13:45.257Z,2.66
2022-12-18T00:16:14.838Z,2.67
2022-12-18T00:18:42.598Z,2.67
2022-12-18T00:21:11.388Z,2.67
2022-12-18T00:23:39.007Z,2.67
2022-12-18T00:26:08.580Z,2.68
2022-12-18T00:28:35.025Z,2.66
2022-12-18T00:31:06.444Z,2.65
2022-12-18T00:33:33.729Z,2.61
2022-12-18T00:36:10.073Z,2.62
2022-12-18T00:38:37.334Z,2.62
2022-12-18T00:41:04.778Z,2.62
2022-12-18T00:43:31.364Z,2.61
2022-12-18T00:45:58.055Z,2.60
2022-12-18T00:48:24.506Z,2.60
2022-12-18T00:50:51.449Z,2.62
2022-12-18T00:53:18.383Z,2.61
2022-12-18T00:55:46.287Z,2.59
2022-12-18T00:58:14.704Z,2.58
2022-12-18T01:00:41.885Z,2.58
2022-12-18T01:03:08.595Z,2.58
2022-12-18T01:05:35.356Z,2.57
2022-12-18T01:08:01.849Z,2.53
2022-12-18T01:10:28.311Z,2.53
2022-12-18T01:12:54.693Z,2.49
2022-12-18T01:15:21.512Z,2.46
2022-12-18T01:17:47.936Z,2.44
2022-12-18T01:20:15.074Z,2.45
2022-12-18T01:22:41.607Z,2.44
2022-12-18T01:25:09.679Z,2.43
2022-12-18T01:27:36.497Z,2.39
2022-12-18T01:30:04.099Z,2.37
2022-12-18T01:32:32.644Z,2.37
2022-12-18T01:34:59.321Z,2.34
2022-12-18T01:37:26.113Z,2.35
2022-12-18T01:39:55.391Z,2.35
2022-12-18T01:42:24.578Z,2.37
2022-12-18T01:45:03.778Z,2.35
2022-12-18T01:47:30.420Z,2.35
2022-12-18T01:50:00.548Z,2.35
2022-12-18T01:52:33.887Z,2.34
2022-12-18T01:55:02.663Z,2.30
2022-12-18T01:57:29.411Z,2.32
2022-12-18T02:00:01.888Z,2.32
2022-12-18T02:02:30.088Z,2.29
2022-12-18T02:04:56.858Z,2.31
2022-12-18T02:07:41.559Z,2.31
2022-12-18T02:10:19.833Z,2.29
2022-12-18T02:12:52.170Z,2.27
2022-12-18T02:15:32.718Z,2.25
2022-12-18T02:18:09.963Z,2.25
2022-12-18T02:20:42.623Z,2.24
2022-12-18T02:23:18.422Z,2.23
2022-12-18T02:26:07.158Z,2.23
2022-12-18T02:28:41.130Z,2.22
2022-12-18T02:31:11.545Z,2.20
2022-12-18T02:33:40.574Z,2.21
2022-12-18T02:36:09.698Z,2.21
2022-12-18T02:38:37.303Z,2.19
2022-12-18T02:41:05.431Z,2.20
2022-12-18T02:43:32.046Z,2.21
2022-12-18T02:46:01.788Z,2.19
2022-12-18T02:48:35.178Z,2.16
2022-12-18T02:51:09.324Z,2.17
2022-12-18T02:53:46.279Z,2.15
2022-12-18T02:56:18.622Z,2.16
2022-12-18T02:58:45.011Z,2.15
2022-12-18T03:01:25.906Z,2.13
2022-12-18T03:04:05.260Z,2.12
2022-12-18T03:06:38.615Z,2.11
2022-12-18T03:09:17.629Z,2.10
2022-12-18T03:12:08.646Z,2.10
2022-12-18T03:14:39.059Z,2.09
2022-12-18T03:17:11.920Z,2.05
2022-12-18T03:19:40.368Z,2.04
2022-12-18T03:22:08.603Z,2.04
2022-12-18T03:24:39.989Z,2.04
2022-12-18T03:27:12.849Z,2.03
2022-12-18T03:29:43.747Z,2.03
2022-12-18T03:32:24.683Z,2.03
2022-12-18T03:34:52.971Z,2.01
2022-12-18T03:37:19.599Z,1.99
2022-12-18T03:39:46.300Z,1.98
2022-12-18T03:42:31.034Z,1.98
2022-12-18T03:45:09.901Z,1.99
2022-12-18T03:47:45.754Z,2.00
2022-12-18T03:50:12.999Z,2.00
2022-12-18T03:52:50.024Z,1.99
2022-12-18T03:55:19.697Z,1.99
2022-12-18T03:57:48.585Z,2.02
2022-12-18T04:00:18.000Z,2.02
2022-12-18T04:02:49.460Z,2.02
2022-12-18T04:05:17.778Z,2.01
2022-12-18T04:07:46.158Z,2.03
2022-12-18T04:10:13.770Z,2.05
2022-12-18T04:12:40.319Z,2.04
2022-12-18T04:15:08.068Z,2.02
2022-12-18T04:17:34.568Z,2.03
2022-12-18T04:20:01.154Z,2.03
2022-12-18T04:22:27.761Z,2.04
2022-12-18T04:24:54.413Z,2.05
2022-12-18T04:27:21.154Z,2.06
2022-12-18T04:29:47.940Z,2.06
2022-12-18T04:32:14.555Z,2.05
2022-12-18T04:34:41.011Z,2.04
2022-12-18T04:37:07.638Z,2.07
2022-12-18T04:39:34.215Z,2.06
2022-12-18T04:42:00.858Z,2.09
2022-12-18T04:44:27.473Z,2.09
2022-12-18T04:46:54.046Z,2.09
2022-12-18T04:49:21.126Z,2.08
2022-12-18T04:51:48.071Z,2.07
2022-12-18T04:54:14.550Z,2.10
2022-12-18T04:56:41.225Z,2.11
2022-12-18T04:59:07.814Z,2.13
2022-12-18T05:01:35.167Z,2.15
2022-12-18T05:04:02.809Z,2.15
2022-12-18T05:06:29.744Z,2.15
2022-12-18T05:08:56.444Z,2.16
2022-12-18T05:11:25.389Z,2.16
2022-12-18T05:13:51.897Z,2.17
2022-12-18T05:16:20.819Z,2.16
2022-12-18T05:18:47.717Z,2.17
2022-12-18T05:21:14.430Z,2.19
2022-12-18T05:23:41.457Z,2.19
2022-12-18T05:26:08.873Z,2.20
2022-12-18T05:28:37.397Z,2.22
2022-12-18T05:31:05.944Z,2.23
2022-12-18T05:33:34.663Z,2.23
2022-12-18T05:36:03.027Z,2.24
2022-12-18T05:38:31.339Z,2.25
2022-12-18T05:40:58.669Z,2.24
2022-12-18T05:43:26.451Z,2.26
2022-12-18T05:45:54.047Z,2.26
2022-12-18T05:48:21.184Z,2.25
2022-12-18T05:50:49.168Z,2.23
2022-12-18T05:53:23.436Z,2.24
2022-12-18T05:55:49.950Z,2.24
2022-12-18T05:58:19.869Z,2.24
2022-12-18T06:00:47.020Z,2.22
2022-12-18T06:03:15.154Z,2.21
2022-12-18T06:05:48.334Z,2.18
2022-12-18T06:08:17.336Z,2.19
2022-12-18T06:10:52.289Z,2.19
2022-12-18T06:13:18.813Z,2.19
2022-12-18T06:15:45.447Z,2.20
2022-12-18T06:18:12.047Z,2.18
2022-12-18T06:20:40.713Z,2.19
2022-12-18T06:23:07.366Z,2.17
2022-12-18T06:25:37.949Z,2.17
2022-12-18T06:28:04.662Z,2.15
2022-12-18T06:30:31.825Z,2.14
2022-12-18T06:33:01.533Z,2.15
2022-12-18T06:35:28.137Z,2.13
2022-12-18T06:37:54.724Z,2.12
2022-12-18T06:40:21.539Z,2.11
2022-12-18T06:42:50.435Z,2.11
2022-12-18T06:45:17.537Z,2.10
2022-12-18T06:47:47.200Z,2.10
2022-12-18T06:50:14.103Z,2.09
2022-12-18T06:52:41.502Z,2.08
2022-12-18T06:55:10.405Z,2.08
2022-12-18T06:57:37.680Z,2.07
2022-12-18T07:00:06.359Z,2.07
2022-12-18T07:02:33.392Z,2.07
2022-12-18T07:05:00.269Z,2.06
2022-12-18T07:07:26.950Z,2.06
2022-12-18T07:09:53.542Z,2.06
2022-12-18T07:12:20.026Z,2.06
2022-12-18T07:14:46.728Z,2.05
2022-12-18T07:17:13.409Z,2.03
2022-12-18T07:19:40.033Z,2.03
2022-12-18T07:22:09.376Z,2.02
2022-12-18T07:24:36.123Z,2.02
2022-12-18T07:27:05.597Z,2.02
2022-12-18T07:29:36.787Z,2.01
2022-12-18T07:32:06.380Z,1.99
2022-12-18T07:34:33.108Z,1.99
2022-12-18T07:36:59.877Z,1.97
2022-12-18T07:39:26.805Z,1.98
2022-12-18T07:42:14.580Z,1.96
2022-12-18T07:44:41.177Z,1.88
2022-12-18T07:47:11.995Z,1.79
2022-12-18T07:49:39.116Z,1.72
2022-12-18T07:52:05.646Z,1.66
2022-12-18T07:54:32.188Z,1.59
2022-12-18T07:56:58.745Z,1.54
2022-12-18T07:59:25.350Z,1.46
2022-12-18T08:01:51.957Z,1.39
2022-12-18T08:04:18.728Z,1.34
2022-12-18T08:06:47.917Z,1.28
2022-12-18T08:09:20.284Z,1.21
2022-12-18T08:11:46.901Z,1.14
2022-12-18T08:14:13.536Z,1.11
2022-12-18T08:16:40.518Z,1.06
2022-12-18T08:19:07.099Z,1.02
2022-12-18T08:21:33.706Z,0.96
2022-12-18T08:24:02.396Z,0.91
2022-12-18T08:26:34.736Z,0.85
2022-12-18T08:29:02.089Z,0.81
2022-12-18T08:31:30.776Z,0.79
2022-12-18T08:33:59.939Z,0.77
2022-12-18T08:36:29.280Z,0.78
2022-12-18T08:39:01.282Z,0.78
2022-12-18T08:41:27.884Z,0.79
2022-12-18T08:44:14.159Z,0.79
2022-12-18T08:46:43.172Z,0.79
2022-12-18T08:49:11.333Z,0.79
2022-12-18T08:51:38.747Z,0.79
2022-12-18T08:54:06.849Z,0.79
2022-12-18T08:56:36.185Z,0.80
2022-12-18T08:59:02.980Z,0.81
2022-12-18T09:01:29.760Z,0.82
2022-12-18T09:03:58.085Z,0.82
2022-12-18T09:06:25.231Z,0.84
2022-12-18T09:08:51.882Z,0.84
2022-12-18T09:11:26.272Z,0.86
2022-12-18T09:13:53.923Z,0.86
2022-12-18T09:16:25.021Z,0.86
2022-12-18T09:19:08.305Z,0.87
2022-12-18T09:21:43.364Z,0.89
2022-12-18T09:24:14.470Z,0.92
2022-12-18T09:26:47.672Z,0.92
2022-12-18T09:29:15.665Z,0.93
2022-12-18T09:31:43.465Z,0.93
2022-12-18T09:34:10.036Z,0.95
2022-12-18T09:36:38.767Z,0.95
2022-12-18T09:39:08.581Z,0.96
2022-12-18T09:41:57.248Z,0.96
2022-12-18T09:44:34.402Z,0.97
2022-12-18T09:47:41.383Z,1.00
2022-12-18T09:50:31.709Z,1.02
2022-12-18T09:53:03.955Z,1.02
2022-12-18T09:55:38.362Z,1.03
2022-12-18T09:58:16.729Z,1.07
2022-12-18T10:00:43.865Z,1.07
2022-12-18T10:03:15.260Z,1.05
2022-12-18T10:06:03.015Z,1.03
2022-12-18T10:08:53.001Z,1.01
2022-12-18T10:11:25.874Z,1.00
2022-12-18T10:14:04.840Z,0.98
2022-12-18T10:16:44.236Z,0.99
2022-12-18T10:19:29.397Z,0.97
2022-12-18T10:22:26.249Z,0.95
2022-12-18T10:25:25.853Z,0.92
2022-12-18T10:28:14.007Z,0.92
2022-12-18T10:30:42.474Z,0.90
2022-12-18T10:33:22.298Z,0.90
2022-12-18T10:35:56.897Z,0.91
2022-12-18T10:38:24.919Z,0.90
2022-12-18T10:40:57.504Z,0.90
2022-12-18T10:43:38.393Z,0.88
2022-12-18T10:46:11.036Z,0.88
2022-12-18T10:48:47.747Z,0.89
2022-12-18T10:51:31.718Z,0.89
2022-12-18T10:54:23.174Z,0.89
2022-12-18T10:56:52.839Z,0.88
2022-12-18T10:59:19.855Z,0.89
2022-12-18T11:02:02.079Z,0.88
2022-12-18T11:04:32.189Z,0.90
2022-12-18T11:07:11.726Z,0.89
2022-12-18T11:09:42.767Z,0.88
2022-12-18T11:12:26.347Z,0.85
2022-12-18T11:14:54.827Z,0.84
2022-12-18T11:17:34.688Z,0.83
2022-12-18T11:20:08.011Z,0.84
2022-12-18T11:22:39.141Z,0.84
2022-12-18T11:25:35.456Z,0.89
2022-12-18T11:28:26.639Z,0.92
2022-12-18T11:31:24.143Z,0.94
2022-12-18T11:34:31.305Z,0.98
2022-12-18T11:37:05.418Z,1.00
2022-12-18T11:39:43.959Z,1.05
2022-12-18T11:42:27.641Z,1.06
2022-12-18T11:45:09.784Z,1.09
2022-12-18T11:48:16.052Z,1.12
2022-12-18T11:50:56.526Z,1.14
2022-12-18T11:53:27.367Z,1.14
2022-12-18T11:56:25.921Z,1.15
2022-12-18T11:59:15.694Z,1.19
2022-12-18T12:02:13.309Z,1.18
2022-12-18T12:04:49.554Z,1.21
2022-12-18T12:07:43.897Z,1.24
2022-12-18T12:10:10.332Z,1.29
2022-12-18T12:12:58.663Z,1.29
2022-12-18T12:15:50.667Z,1.33
2022-12-18T12:18:42.775Z,1.35
2022-12-18T12:21:40.382Z,1.37
2022-12-18T12:24:32.555Z,1.42
2022-12-18T12:27:37.023Z,1.41
2022-12-18T12:30:10.274Z,1.39
2022-12-18T12:33:00.206Z,1.38
2022-12-18T12:35:32.855Z,1.41
2022-12-18T12:38:08.977Z,1.43
2022-12-18T12:40:58.833Z,1.43
2022-12-18T12:43:52.806Z,1.46
2022-12-18T12:46:25.828Z,1.47
2022-12-18T12:49:10.777Z,1.52
2022-12-18T12:51:44.651Z,1.54
2022-12-18T12:54:18.736Z,1.58
2022-12-18T12:57:05.001Z,1.58
2022-12-18T12:59:50.527Z,1.62
2022-12-18T13:02:36.975Z,1.66
2022-12-18T13:05:12.938Z,1.69
2022-12-18T13:07:47.570Z,1.69
2022-12-18T13:10:28.685Z,1.72
2022-12-18T13:13:09.364Z,1.76
2022-12-18T13:15:48.586Z,1.74
2022-12-18T13:18:19.137Z,1.76
2022-12-18T13:20:53.657Z,1.77
2022-12-18T13:23:27.045Z,1.76
2022-12-18T13:26:26.438Z,1.79
2022-12-18T13:28:59.795Z,1.82
2022-12-18T13:31:58.081Z,1.85
2022-12-18T13:34:31.774Z,1.85
2022-12-18T13:37:40.578Z,1.82
2022-12-18T13:40:41.128Z,1.81
2022-12-18T13:43:19.998Z,1.80
2022-12-18T13:46:00.212Z,1.82
2022-12-18T13:48:28.695Z,1.80
2022-12-18T13:51:04.432Z,1.82
2022-12-18T13:53:35.306Z,1.87
2022-12-18T13:56:03.294Z,1.88
2022-12-18T13:58:30.189Z,1.86
2022-12-18T14:01:00.527Z,1.85
2022-12-18T14:03:29.606Z,1.88
2022-12-18T14:06:01.575Z,1.84
2022-12-18T14:08:34.881Z,1.86
2022-12-18T14:11:05.102Z,1.90
2022-12-18T14:13:36.670Z,1.91
2022-12-18T14:16:06.041Z,1.89
2022-12-18T14:18:57.106Z,1.90
2022-12-18T14:21:35.049Z,1.93
2022-12-18T14:24:20.036Z,1.94
2022-12-18T14:26:48.406Z,1.94
2022-12-18T14:29:32.918Z,1.96
2022-12-18T14:32:35.636Z,1.96
2022-12-18T14:35:14.362Z,1.96
2022-12-18T14:37:41.030Z,1.95
2022-12-18T14:40:14.219Z,2.00
2022-12-18T14:42:40.970Z,2.03
2022-12-18T14:45:41.499Z,2.09
2022-12-18T14:48:10.500Z,2.06
2022-12-18T14:50:39.347Z,2.08
2022-12-18T14:53:24.119Z,2.10
2022-12-18T14:55:51.804Z,2.11
2022-12-18T14:58:19.666Z,2.10
2022-12-18T15:00:46.536Z,2.12
2022-12-18T15:03:20.422Z,2.15
2022-12-18T15:05:49.970Z,2.13
2022-12-18T15:08:33.979Z,2.13
2022-12-18T15:11:01.287Z,2.18
2022-12-18T15:13:31.515Z,2.21
2022-12-18T15:16:04.150Z,2.20
2022-12-18T15:18:35.084Z,2.23
2022-12-18T15:21:10.500Z,2.23
2022-12-18T15:23:50.478Z,2.22
2022-12-18T15:26:19.671Z,2.25
2022-12-18T15:28:52.878Z,2.24
2022-12-18T15:31:31.237Z,2.22
2022-12-18T15:34:01.945Z,2.18
2022-12-18T15:36:37.915Z,2.21
2022-12-18T15:39:06.817Z,2.21
2022-12-18T15:41:36.148Z,2.20
2022-12-18T15:44:04.516Z,2.22
2022-12-18T15:46:34.354Z,2.23
2022-12-18T15:49:02.996Z,2.20
2022-12-18T15:51:36.424Z,2.22
2022-12-18T15:54:05.924Z,2.20
2022-12-18T15:56:53.962Z,2.23
2022-12-18T15:59:32.677Z,2.23
2022-12-18T16:01:59.340Z,2.21
2022-12-18T16:04:29.692Z,2.20
2022-12-18T16:08:06.395Z,2.22
2022-12-18T16:09:52.746Z,2.22
2022-12-18T16:12:27.742Z,2.22
2022-12-18T16:14:54.286Z,2.24
2022-12-18T16:17:23.624Z,2.20
2022-12-18T16:19:50.502Z,2.22
2022-12-18T16:22:23.952Z,2.20
2022-12-18T16:24:54.941Z,2.17
2022-12-18T16:27:22.828Z,2.17
2022-12-18T16:29:49.600Z,2.19
2022-12-18T16:32:21.527Z,2.19
2022-12-18T16:34:48.528Z,2.19
2022-12-18T16:37:17.960Z,2.22
2022-12-18T16:39:54.066Z,2.23
2022-12-18T16:42:21.167Z,2.24
2022-12-18T16:44:52.618Z,2.24
2022-12-18T16:47:20.084Z,2.24
2022-12-18T16:49:52.968Z,2.22
2022-12-18T16:52:24.108Z,2.24
2022-12-18T16:54:53.709Z,2.24
2022-12-18T16:57:24.086Z,2.25
2022-12-18T16:59:52.432Z,2.25
2022-12-18T17:02:24.649Z,2.24
2022-12-18T17:04:55.014Z,2.27
2022-12-18T17:07:21.542Z,2.25
2022-12-18T17:09:51.979Z,2.25
2022-12-18T17:12:18.500Z,2.24
2022-12-18T17:14:47.495Z,2.22
2022-12-18T17:17:21.777Z,2.26
2022-12-18T17:19:49.282Z,2.24
2022-12-18T17:22:15.872Z,2.29
2022-12-18T17:24:42.479Z,2.27
2022-12-18T17:27:09.021Z,2.28
2022-12-18T17:29:43.899Z,2.26
2022-12-18T17:32:13.776Z,2.25
2022-12-18T17:34:40.846Z,2.26
2022-12-18T17:37:08.975Z,2.29
2022-12-18T17:39:35.696Z,2.28
2022-12-18T17:42:02.316Z,2.27
2022-12-18T17:44:28.832Z,2.29
2022-12-18T17:46:58.500Z,2.30
2022-12-18T17:49:24.971Z,2.29
2022-12-18T17:51:51.643Z,2.30
2022-12-18T17:54:18.074Z,2.33
2022-12-18T17:56:44.693Z,2.34
2022-12-18T17:59:11.382Z,2.35
2022-12-18T18:01:47.383Z,2.34
2022-12-18T18:04:15.621Z,2.32
2022-12-18T18:06:42.319Z,2.33
2022-12-18T18:09:16.158Z,2.33
2022-12-18T18:12:02.925Z,2.35
2022-12-18T18:14:29.798Z,2.34
2022-12-18T18:16:56.401Z,2.36
2022-12-18T18:19:25.510Z,2.38
2022-12-18T18:21:53.825Z,2.38
2022-12-18T18:24:26.115Z,2.37
2022-12-18T18:26:57.819Z,2.36
2022-12-18T18:29:26.993Z,2.37
2022-12-18T18:31:57.235Z,2.39
2022-12-18T18:34:30.270Z,2.41
2022-12-18T18:37:01.186Z,2.42
2022-12-18T18:39:28.201Z,2.42
2022-12-18T18:41:55.006Z,2.42
2022-12-18T18:44:25.611Z,2.41
2022-12-18T18:46:56.720Z,2.40
2022-12-18T18:49:27.557Z,2.42
2022-12-18T18:51:55.265Z,2.47
2022-12-18T18:54:24.603Z,2.47
2022-12-18T18:57:22.660Z,2.45
2022-12-18T18:59:37.990Z,2.43
2022-12-18T19:02:07.676Z,2.44
2022-12-18T19:04:34.569Z,2.45
2022-12-18T19:07:01.678Z,2.44
2022-12-18T19:09:28.812Z,2.46
2022-12-18T19:14:56.488Z,2.47
2022-12-18T19:17:29.564Z,2.47
2022-12-18T19:19:59.917Z,2.48
2022-12-18T19:22:26.386Z,2.49
2022-12-18T19:24:52.836Z,2.52
2022-12-18T19:27:19.299Z,2.51
2022-12-18T19:29:45.734Z,2.51
2022-12-18T19:32:12.408Z,2.52
2022-12-18T19:34:39.714Z,2.49
2022-12-18T19:37:06.418Z,2.56
2022-12-18T19:39:33.210Z,2.56
2022-12-18T19:41:59.788Z,2.53
2022-12-18T19:44:26.885Z,2.54
2022-12-18T19:46:53.511Z,2.52
2022-12-18T19:49:20.020Z,2.50
2022-12-18T19:51:47.676Z,2.53
2022-12-18T19:54:17.734Z,2.53
2022-12-18T19:56:45.739Z,2.49
2022-12-18T19:59:12.835Z,2.49
2022-12-18T20:01:39.933Z,2.53
2022-12-18T20:04:07.009Z,2.54
2022-12-18T20:06:55.625Z,2.49
2022-12-18T20:09:24.455Z,2.54
2022-12-18T20:11:51.693Z,2.56
2022-12-18T20:14:22.312Z,2.55
2022-12-18T20:16:50.955Z,2.54
2022-12-18T20:19:18.229Z,2.56
2022-12-18T20:21:45.722Z,2.58
2022-12-18T20:24:13.038Z,2.56
2022-12-18T20:26:40.590Z,2.57
2022-12-18T20:29:07.233Z,2.59
2022-12-18T20:31:36.721Z,2.58
2022-12-18T20:34:06.040Z,2.60
2022-12-18T20:36:34.258Z,2.56
2022-12-18T20:39:06.525Z,2.61
2022-12-18T20:41:38.099Z,2.62
2022-12-18T20:44:22.531Z,2.64
2022-12-18T20:47:05.747Z,2.66
2022-12-18T20:49:35.754Z,2.63
2022-12-18T20:52:04.566Z,2.63
2022-12-18T20:54:31.241Z,2.64
2022-12-18T20:57:01.508Z,2.67
2022-12-18T20:59:28.231Z,2.64
2022-12-18T21:01:55.458Z,2.63
2022-12-18T21:04:22.916Z,2.63
2022-12-18T21:06:59.239Z,2.66
2022-12-18T21:09:37.514Z,2.68
2022-12-18T21:12:43.943Z,2.67
2022-12-18T21:15:18.073Z,2.67
2022-12-18T21:17:51.602Z,2.66
2022-12-18T21:20:18.992Z,2.68
2022-12-18T21:22:48.139Z,2.68
2022-12-18T21:25:16.991Z,2.66
2022-12-18T21:27:45.517Z,2.65
2022-12-18T21:30:18.937Z,2.66
2022-12-18T21:32:48.805Z,2.63
2022-12-18T21:35:22.974Z,2.65
2022-12-18T21:37:51.908Z,2.65
2022-12-18T21:40:25.565Z,2.64
2022-12-18T21:43:13.375Z,2.66
2022-12-18T21:45:46.837Z,2.67
2022-12-18T21:50:59.782Z,2.63
2022-12-18T21:53:26.446Z,2.66
2022-12-18T21:56:02.071Z,2.66
2022-12-18T21:58:30.863Z,2.66
2022-12-18T22:01:12.928Z,2.68
2022-12-18T22:03:40.338Z,2.68
2022-12-18T22:06:16.770Z,2.66
2022-12-18T22:08:44.167Z,2.65
2022-12-18T22:11:17.058Z,2.66
2022-12-18T22:13:48.206Z,2.68
2022-12-18T22:16:17.497Z,2.70
2022-12-18T22:18:48.163Z,2.65
2022-12-18T22:21:30.348Z,2.65
2022-12-18T22:24:07.825Z,2.62
2022-12-18T22:26:40.893Z,2.61
2022-12-18T22:29:29.173Z,2.60
2022-12-18T22:32:02.173Z,2.65
2022-12-18T22:34:29.219Z,2.63
2022-12-18T22:36:58.285Z,2.62
2022-12-18T22:39:29.365Z,2.59
2022-12-18T22:42:10.255Z,2.62
2022-12-18T22:44:36.814Z,2.62
2022-12-18T22:47:07.044Z,2.65
2022-12-18T22:49:35.335Z,2.65
2022-12-18T22:52:03.508Z,2.66
2022-12-18T22:54:31.183Z,2.65
2022-12-18T22:57:03.168Z,2.65
2022-12-18T22:59:29.937Z,2.62
2022-12-18T23:01:59.596Z,2.65
2022-12-18T23:04:36.334Z,2.65
2022-12-18T23:07:06.776Z,2.65
2022-12-18T23:09:33.911Z,2.63
2022-12-18T23:12:01.341Z,2.66
2022-12-18T23:14:31.941Z,2.66
2022-12-18T23:17:10.307Z,2.68
2022-12-18T23:19:45.503Z,2.65
2022-12-18T23:22:24.596Z,2.66
2022-12-18T23:24:51.351Z,2.67
2022-12-18T23:27:21.149Z,2.67
2022-12-18T23:29:48.438Z,2.67
2022-12-18T23:32:25.155Z,2.67
2022-12-18T23:34:51.851Z,2.68
2022-12-18T23:37:49.950Z,2.68
2022-12-18T23:40:05.807Z,2.69
2022-12-18T23:42:35.312Z,2.69
2022-12-18T23:45:04.498Z,2.70
2022-12-18T23:47:51.074Z,2.70
2022-12-18T23:50:18.026Z,2.70
2022-12-18T23:52:44.588Z,2.69
2022-12-18T23:55:13.382Z,2.70
2022-12-18T23:57:39.990Z,2.71
